Time;durP1;ratioP1;P1;durP2;ratioP2;P2;SDS_P1;SDS_P2;PMS_P1;PMS_P2;Temp;Humidity;BMP_temperature;BMP_pressure;BME280_temperature;BME280_humidity;BME280_pressure;Samples;Min_cycle;Max_cycle;Signal;HPM_P1;HPM_P2
2021/01/11 00:00:00;;;;;;;;;;;;;;;22.94;42.56;101602.31;2043743;28;3794;-69
2021/01/11 00:01:00;;;;;;;;;;;;;;;22.95;42.80;101597.44;2045560;29;6369;-68
2021/01/11 00:02:00;;;;;;;;;;;;;;;22.91;43.11;101597.31;2044062;28;3867;-69
2021/01/11 00:03:00;;;;;;;;;;;;;;;22.89;42.92;101599.66;2044394;28;3895;-70
2021/01/11 00:04:01;;;;;;;;;;;;;;;22.89;42.85;101600.50;2045261;29;4189;-69
2021/01/11 00:05:01;;;;;;;;;;;;;;;22.88;42.97;101595.97;2045393;29;4099;-69
2021/01/11 00:06:01;;;;;;;;;;;;;;;22.86;43.13;101600.34;2045454;29;4048;-70
2021/01/11 00:07:01;;;;;;;;;;;;;;;22.88;42.90;101598.84;2043797;28;3965;-71
2021/01/11 00:08:01;;;;;;;;;;;;;;;22.84;43.22;101588.44;2045929;29;4450;-70
2021/01/11 00:09:01;;;;;;;;;;;;;;;22.83;43.04;101599.03;2045816;29;4165;-71
2021/01/11 00:10:01;;;;;;;;;;;;;;;22.85;42.99;101593.81;2044973;28;3855;-70
2021/01/11 00:11:01;;;;;;;;;;;;;;;22.85;42.97;101607.22;2045435;29;4384;-69
2021/01/11 00:12:01;;;;;;;;;;;;;;;22.89;42.96;101608.22;2044601;28;4211;-69
2021/01/11 00:13:01;;;;;;;;;;;;;;;22.91;43.43;101600.16;2044140;28;4071;-69
2021/01/11 00:14:01;;;;;;;;;;;;;;;22.96;43.43;101601.97;2045773;28;4224;-69
2021/01/11 00:15:01;;;;;;;;;;;;;;;22.97;43.20;101607.34;2045740;29;3964;-70
2021/01/11 00:16:01;;;;;;;;;;;;;;;22.97;43.30;101606.53;2045077;28;4465;-69
2021/01/11 00:17:01;;;;;;;;;;;;;;;22.97;43.11;101607.34;2045696;29;4400;-68
2021/01/11 00:18:02;;;;;;;;;;;;;;;23.00;43.11;101600.94;2043749;28;3768;-68
2021/01/11 00:19:02;;;;;;;;;;;;;;;23.03;42.83;101597.38;2043505;28;3883;-67
2021/01/11 00:20:02;;;;;;;;;;;;;;;22.98;43.08;101608.19;2045235;28;4408;-71
2021/01/11 00:21:02;;;;;;;;;;;;;;;23.01;43.07;101611.16;2044442;28;3924;-71
2021/01/11 00:22:02;;;;;;;;;;;;;;;23.01;43.18;101601.78;2044630;28;3841;-70
2021/01/11 00:23:02;;;;;;;;;;;;;;;23.04;43.29;101599.06;2043962;28;4106;-69
2021/01/11 00:24:02;;;;;;;;;;;;;;;23.05;43.23;101611.31;2045649;29;3901;-69
2021/01/11 00:25:02;;;;;;;;;;;;;;;23.00;43.10;101600.94;2044188;28;3979;-69
2021/01/11 00:26:02;;;;;;;;;;;;;;;23.02;43.06;101594.88;2045555;28;3961;-69
2021/01/11 00:27:02;;;;;;;;;;;;;;;22.97;43.08;101601.66;2044737;29;3758;-68
2021/01/11 00:28:02;;;;;;;;;;;;;;;22.97;43.08;101597.97;2044664;28;3888;-69
2021/01/11 00:29:03;;;;;;;;;;;;;;;22.96;43.14;101597.09;2044827;29;4059;-68
2021/01/11 00:30:03;;;;;;;;;;;;;;;22.96;42.84;101594.25;2044896;28;3791;-69
2021/01/11 00:31:03;;;;;;;;;;;;;;;22.96;42.98;101605.66;2045638;28;4020;-68
2021/01/11 00:32:03;;;;;;;;;;;;;;;22.96;42.92;101594.25;2044469;28;3925;-71
2021/01/11 00:33:03;;;;;;;;;;;;;;;22.94;42.84;101601.44;2044988;29;3948;-70
2021/01/11 00:34:03;;;;;;;;;;;;;;;22.91;43.06;101603.00;2045276;29;4028;-70
2021/01/11 00:35:03;;;;;;;;;;;;;;;22.89;43.27;101611.06;2042350;28;3899;-70
2021/01/11 00:36:03;;;;;;;;;;;;;;;22.88;43.14;101604.53;2043864;28;6039;-70
2021/01/11 00:37:03;;;;;;;;;;;;;;;22.89;43.08;101600.50;2044049;28;4064;-70
2021/01/11 00:38:03;;;;;;;;;;;;;;;22.88;43.14;101600.81;2044292;28;4024;-70
2021/01/11 00:39:03;;;;;;;;;;;;;;;22.90;43.13;101601.31;2045285;28;4425;-71
2021/01/11 00:40:03;;;;;;;;;;;;;;;22.89;43.17;101605.38;2043346;28;3867;-70
2021/01/11 00:41:03;;;;;;;;;;;;;;;22.86;43.02;101606.91;2046346;29;4220;-70
2021/01/11 00:42:03;;;;;;;;;;;;;;;22.85;43.16;101605.25;2043988;28;3938;-70
2021/01/11 00:43:04;;;;;;;;;;;;;;;22.89;42.88;101606.19;2044561;28;3881;-69
2021/01/11 00:44:04;;;;;;;;;;;;;;;22.89;42.90;101606.19;2044460;28;3780;-68
2021/01/11 00:45:04;;;;;;;;;;;;;;;22.92;42.90;101603.84;2043890;28;3983;-69
2021/01/11 00:46:04;;;;;;;;;;;;;;;22.95;42.95;101601.13;2044212;28;3963;-68
2021/01/11 00:47:04;;;;;;;;;;;;;;;23.02;42.79;101606.28;2043581;28;5248;-70
2021/01/11 00:48:04;;;;;;;;;;;;;;;23.05;42.84;101602.75;2045540;28;3880;-68
2021/01/11 00:49:04;;;;;;;;;;;;;;;23.04;42.94;101609.63;2045609;28;4478;-69
2021/01/11 00:50:04;;;;;;;;;;;;;;;23.03;42.84;101610.84;2045504;28;4023;-68
2021/01/11 00:51:04;;;;;;;;;;;;;;;23.02;43.01;101604.28;2045940;28;3780;-68
2021/01/11 00:52:04;;;;;;;;;;;;;;;23.01;42.86;101607.47;2046066;28;3871;-68
2021/01/11 00:53:04;;;;;;;;;;;;;;;23.01;42.86;101604.63;2046371;29;4378;-68
2021/01/11 00:54:04;;;;;;;;;;;;;;;23.00;42.87;101609.50;2046844;29;3758;-68
2021/01/11 00:55:05;;;;;;;;;;;;;;;22.98;42.87;101608.19;2045994;28;4022;-68
2021/01/11 00:56:05;;;;;;;;;;;;;;;23.00;42.83;101606.66;2046455;29;3849;-67
2021/01/11 00:57:05;;;;;;;;;;;;;;;23.01;42.67;101602.59;2043042;28;4065;-68
2021/01/11 00:58:05;;;;;;;;;;;;;;;22.99;42.73;101604.13;2047810;28;3999;-68
2021/01/11 00:59:05;;;;;;;;;;;;;;;22.99;42.84;101599.28;2047808;28;4052;-68
2021/01/11 01:00:05;;;;;;;;;;;;;;;22.97;42.77;101603.66;2046635;29;4160;-68
2021/01/11 01:01:05;;;;;;;;;;;;;;;22.94;42.91;101607.16;2046720;29;4091;-69
2021/01/11 01:02:05;;;;;;;;;;;;;;;22.93;42.69;101606.34;2045206;28;4106;-68
2021/01/11 01:03:05;;;;;;;;;;;;;;;22.91;42.90;101600.16;2045873;28;3802;-69
2021/01/11 01:04:05;;;;;;;;;;;;;;;22.92;42.75;101613.22;2047058;29;4191;-67
2021/01/11 01:05:05;;;;;;;;;;;;;;;22.94;43.01;101607.16;2046180;28;4223;-67
2021/01/11 01:06:05;;;;;;;;;;;;;;;22.94;42.86;101602.31;2046126;28;4358;-68
2021/01/11 01:07:06;;;;;;;;;;;;;;;22.96;42.79;101597.09;2045465;28;4174;-68
2021/01/11 01:08:06;;;;;;;;;;;;;;;22.97;42.89;101600.81;2045845;28;4127;-67
2021/01/11 01:09:06;;;;;;;;;;;;;;;23.01;42.73;101593.22;2045866;28;4065;-68
2021/01/11 01:10:06;;;;;;;;;;;;;;;23.03;42.59;101605.97;2046928;28;4419;-69
2021/01/11 01:11:06;;;;;;;;;;;;;;;23.02;42.85;101592.88;2046466;28;4572;-68
2021/01/11 01:12:06;;;;;;;;;;;;;;;23.06;42.77;101593.84;2045501;28;3969;-68
2021/01/11 01:13:06;;;;;;;;;;;;;;;23.04;42.79;101599.06;2046314;28;5228;-69
2021/01/11 01:14:06;;;;;;;;;;;;;;;23.05;42.94;101597.06;2046121;28;4033;-69
2021/01/11 01:15:06;;;;;;;;;;;;;;;23.07;42.59;101595.53;2046984;29;3984;-69
2021/01/11 01:16:06;;;;;;;;;;;;;;;23.11;42.65;101592.81;2045244;28;4367;-68
2021/01/11 01:17:06;;;;;;;;;;;;;;;23.10;42.91;101588.25;2045989;29;4051;-68
2021/01/11 01:18:06;;;;;;;;;;;;;;;23.09;42.71;101589.44;2046339;28;4054;-68
2021/01/11 01:19:06;;;;;;;;;;;;;;;23.10;42.55;101591.13;2046791;28;4183;-68
2021/01/11 01:20:08;;;;;;;;;;;;;;;23.11;42.49;101590.78;2047151;29;4026;-68
2021/01/11 01:21:08;;;;;;;;;;;;;;;23.06;42.66;101584.44;2044362;28;3984;-68
2021/01/11 01:22:08;;;;;;;;;;;;;;;23.07;42.64;101583.25;2046490;28;3843;-68
2021/01/11 01:23:08;;;;;;;;;;;;;;;23.04;42.58;101590.50;2046814;29;4045;-68
2021/01/11 01:24:08;;;;;;;;;;;;;;;23.06;42.50;101585.28;2045899;28;4184;-69
2021/01/11 01:25:08;;;;;;;;;;;;;;;23.00;42.73;101578.13;2046795;28;4003;-69
2021/01/11 01:26:09;;;;;;;;;;;;;;;22.98;42.76;101583.31;2045805;28;4004;-68
2021/01/11 01:27:09;;;;;;;;;;;;;;;23.03;42.63;101590.84;2045496;28;3826;-68
2021/01/11 01:28:09;;;;;;;;;;;;;;;22.97;42.82;101595.09;2038889;29;3888;-68
2021/01/11 01:29:09;;;;;;;;;;;;;;;22.97;42.82;101590.22;2038288;29;3987;-67
2021/01/11 01:30:09;;;;;;;;;;;;;;;22.97;42.79;101586.53;2046457;28;3747;-68
2021/01/11 01:31:09;;;;;;;;;;;;;;;22.95;42.75;101581.13;2045881;29;3945;-68
2021/01/11 01:32:09;;;;;;;;;;;;;;;22.99;42.73;101582.16;2045954;28;4353;-68
2021/01/11 01:33:09;;;;;;;;;;;;;;;23.02;42.81;101581.47;2046399;28;3746;-68
2021/01/11 01:34:09;;;;;;;;;;;;;;;22.98;42.80;101583.31;2045916;28;4316;-68
2021/01/11 01:35:09;;;;;;;;;;;;;;;22.98;42.78;101579.66;2046472;28;3730;-69
2021/01/11 01:36:09;;;;;;;;;;;;;;;23.01;42.77;101574.06;2045871;29;3851;-69
2021/01/11 01:37:09;;;;;;;;;;;;;;;23.01;42.80;101579.78;2045113;28;3803;-69
2021/01/11 01:38:10;;;;;;;;;;;;;;;23.05;42.64;101577.91;2045679;28;3870;-69
2021/01/11 01:39:10;;;;;;;;;;;;;;;23.05;42.65;101572.19;2046179;28;3865;-69
2021/01/11 01:40:10;;;;;;;;;;;;;;;23.09;42.51;101572.31;2046063;28;4023;-70
2021/01/11 01:41:10;;;;;;;;;;;;;;;23.09;42.48;101576.00;2046087;28;3771;-71
2021/01/11 01:42:10;;;;;;;;;;;;;;;23.11;42.49;101573.66;2045661;28;4303;-71
2021/01/11 01:43:10;;;;;;;;;;;;;;;23.12;42.43;101574.47;2045748;28;3957;-71
2021/01/11 01:44:10;;;;;;;;;;;;;;;23.09;42.33;101576.00;2046461;28;3732;-71
2021/01/11 01:45:10;;;;;;;;;;;;;;;23.08;42.46;101567.81;2046575;29;4043;-68
2021/01/11 01:46:10;;;;;;;;;;;;;;;23.09;42.55;101576.00;2046445;28;3797;-67
2021/01/11 01:47:10;;;;;;;;;;;;;;;23.09;42.33;101570.31;2045827;28;3967;-68
2021/01/11 01:48:10;;;;;;;;;;;;;;;23.07;42.41;101572.69;2046267;28;4564;-68
2021/01/11 01:49:10;;;;;;;;;;;;;;;23.09;42.22;101567.44;2047309;29;4026;-68
2021/01/11 01:50:10;;;;;;;;;;;;;;;23.06;42.37;101573.84;2046426;28;3766;-69
2021/01/11 01:51:11;;;;;;;;;;;;;;;23.07;42.38;101571.84;2045621;28;3909;-68
2021/01/11 01:52:11;;;;;;;;;;;;;;;23.09;42.45;101558.06;2044733;28;3956;-68
2021/01/11 01:53:11;;;;;;;;;;;;;;;23.09;42.59;101569.47;2044533;28;3916;-68
2021/01/11 01:54:11;;;;;;;;;;;;;;;23.04;42.49;101573.38;2046449;29;3761;-68
2021/01/11 01:55:11;;;;;;;;;;;;;;;22.99;42.51;101570.75;2046197;29;3952;-68
2021/01/11 01:56:11;;;;;;;;;;;;;;;23.02;42.74;101567.19;2037174;29;3746;-69
2021/01/11 01:57:11;;;;;;;;;;;;;;;23.02;42.82;101570.03;2036438;29;3740;-68
2021/01/11 01:58:11;;;;;;;;;;;;;;;23.03;42.82;101570.88;2045757;28;3946;-68
2021/01/11 01:59:11;;;;;;;;;;;;;;;23.03;42.83;101574.56;2046293;28;3997;-69
2021/01/11 02:00:11;;;;;;;;;;;;;;;23.00;42.65;101575.25;2046254;28;3567;-68
2021/01/11 02:01:12;;;;;;;;;;;;;;;23.02;42.72;101570.03;2046099;28;3995;-69
2021/01/11 02:02:12;;;;;;;;;;;;;;;23.00;42.75;101566.69;2045986;28;3938;-68
2021/01/11 02:03:12;;;;;;;;;;;;;;;23.01;42.59;101567.53;2046798;28;4099;-69
2021/01/11 02:04:12;;;;;;;;;;;;;;;23.01;42.79;101571.22;2047084;28;3896;-69
2021/01/11 02:05:12;;;;;;;;;;;;;;;23.00;42.90;101571.56;2045466;28;3796;-68
2021/01/11 02:06:12;;;;;;;;;;;;;;;23.02;42.85;101572.91;2046952;29;3797;-70
2021/01/11 02:07:12;;;;;;;;;;;;;;;23.06;42.74;101561.59;2045058;28;4053;-68
2021/01/11 02:08:12;;;;;;;;;;;;;;;23.11;42.87;101565.09;2045642;28;4396;-69
2021/01/11 02:09:13;;;;;;;;;;;;;;;23.10;42.71;101559.72;2045907;28;4201;-69
2021/01/11 02:10:13;;;;;;;;;;;;;;;23.08;42.85;101562.94;2045662;28;4196;-69
2021/01/11 02:11:13;;;;;;;;;;;;;;;23.08;42.84;101560.06;2044772;28;3893;-69
2021/01/11 02:12:13;;;;;;;;;;;;;;;23.12;42.69;101561.03;2045213;28;3887;-69
2021/01/11 02:13:13;;;;;;;;;;;;;;;23.12;42.62;101557.34;2046557;29;4047;-69
2021/01/11 02:14:13;;;;;;;;;;;;;;;23.13;42.73;101559.03;2045380;28;4299;-69
2021/01/11 02:15:13;;;;;;;;;;;;;;;23.11;42.75;101561.41;2043286;28;3937;-68
2021/01/11 02:16:13;;;;;;;;;;;;;;;23.13;42.71;101559.03;2043964;28;3835;-68
2021/01/11 02:17:14;;;;;;;;;;;;;;;23.10;42.70;101557.72;2040863;29;3813;-68
2021/01/11 02:18:25;;;;;;;;;;;;;;;23.11;42.90;101556.53;2035803;29;4087;-69
2021/01/11 02:19:25;;;;;;;;;;;;;;;23.08;42.85;101554.38;2044153;28;3906;-71
2021/01/11 02:20:25;;;;;;;;;;;;;;;23.10;42.62;101551.16;2036843;29;4142;-68
2021/01/11 02:21:25;;;;;;;;;;;;;;;23.13;42.72;101544.75;2036606;29;4080;-68
2021/01/11 02:22:25;;;;;;;;;;;;;;;23.15;42.69;101548.09;2046397;29;4992;-68
2021/01/11 02:23:25;;;;;;;;;;;;;;;23.12;42.69;101552.47;2045601;28;4898;-68
2021/01/11 02:24:25;;;;;;;;;;;;;;;23.15;42.62;101544.41;2046074;28;4063;-69
2021/01/11 02:25:25;;;;;;;;;;;;;;;23.10;42.74;101546.28;2045363;28;4053;-68
2021/01/11 02:26:26;;;;;;;;;;;;;;;22.53;41.79;101552.59;2044496;28;4056;-68
2021/01/11 02:27:26;;;;;;;;;;;;;;;22.24;44.27;101551.41;2043497;28;3947;-68
2021/01/11 02:28:26;;;;;;;;;;;;;;;22.40;44.16;101550.84;2042868;28;4101;-72
2021/01/11 02:29:26;;;;;;;;;;;;;;;22.68;43.27;101548.28;2043091;28;3966;-70
2021/01/11 02:30:26;;;;;;;;;;;;;;;22.77;42.51;101539.66;2042647;29;4047;-70
2021/01/11 02:31:26;;;;;;;;;;;;;;;22.87;42.42;101544.94;2044100;28;4092;-69
2021/01/11 02:32:26;;;;;;;;;;;;;;;22.99;42.50;101547.06;2045337;29;3955;-69
2021/01/11 02:33:26;;;;;;;;;;;;;;;22.92;42.98;101549.63;2046034;29;3967;-69
2021/01/11 02:34:26;;;;;;;;;;;;;;;22.90;42.97;101547.94;2045570;29;4359;-69
2021/01/11 02:35:26;;;;;;;;;;;;;;;22.93;43.04;101545.56;2044726;28;4062;-69
2021/01/11 02:36:26;;;;;;;;;;;;;;;22.94;43.07;101550.09;2045514;28;3995;-71
2021/01/11 02:37:26;;;;;;;;;;;;;;;22.93;43.00;101546.41;2046313;29;4492;-71
2021/01/11 02:38:27;;;;;;;;;;;;;;;23.00;42.94;101546.72;2046914;29;4010;-70
2021/01/11 02:39:27;;;;;;;;;;;;;;;23.03;42.79;101546.00;2045560;28;3887;-70
2021/01/11 02:40:27;;;;;;;;;;;;;;;23.04;42.89;101544.81;2045206;28;4146;-70
2021/01/11 02:41:27;;;;;;;;;;;;;;;23.02;42.93;101546.34;2043640;28;3963;-70
2021/01/11 02:42:27;;;;;;;;;;;;;;;23.04;42.97;101544.00;2047026;28;4397;-69
2021/01/11 02:43:27;;;;;;;;;;;;;;;23.04;42.94;101541.13;2045971;28;4050;-70
2021/01/11 02:44:27;;;;;;;;;;;;;;;23.02;42.94;101541.50;2046464;28;3954;-69
2021/01/11 02:45:27;;;;;;;;;;;;;;;23.01;43.13;101536.97;2045675;28;4048;-70
2021/01/11 02:46:27;;;;;;;;;;;;;;;23.02;42.74;101535.78;2045333;28;4108;-68
2021/01/11 02:47:27;;;;;;;;;;;;;;;23.00;42.83;101545.88;2045135;29;4153;-68
2021/01/11 02:48:27;;;;;;;;;;;;;;;22.99;42.74;101541.34;2045971;28;4063;-69
2021/01/11 02:49:27;;;;;;;;;;;;;;;22.97;43.17;101538.84;2045205;28;4045;-69
2021/01/11 02:50:28;;;;;;;;;;;;;;;22.99;43.18;101544.19;2044377;28;3966;-70
2021/01/11 02:51:28;;;;;;;;;;;;;;;22.96;43.15;101542.88;2045092;28;4124;-69
2021/01/11 02:52:28;;;;;;;;;;;;;;;22.94;43.21;101544.38;2046783;29;4025;-70
2021/01/11 02:53:28;;;;;;;;;;;;;;;22.90;43.29;101541.41;2045581;28;3816;-70
2021/01/11 02:54:28;;;;;;;;;;;;;;;22.93;43.52;101534.16;2045945;28;4043;-70
2021/01/11 02:55:28;;;;;;;;;;;;;;;22.92;43.54;101527.63;2044547;28;5028;-69
2021/01/11 02:56:28;;;;;;;;;;;;;;;22.92;43.48;101532.50;2046778;29;3826;-69
2021/01/11 02:57:28;;;;;;;;;;;;;;;22.93;43.21;101537.00;2044828;29;4014;-69
2021/01/11 02:58:29;;;;;;;;;;;;;;;22.91;43.44;101528.81;2046074;29;4129;-69
2021/01/11 02:59:29;;;;;;;;;;;;;;;22.92;43.39;101529.66;2045883;28;4046;-69
2021/01/11 03:00:29;;;;;;;;;;;;;;;22.94;43.27;101530.97;2043349;28;3911;-69
2021/01/11 03:01:29;;;;;;;;;;;;;;;22.89;43.41;101534.03;2044491;28;4063;-68
2021/01/11 03:02:29;;;;;;;;;;;;;;;22.91;43.45;101525.97;2045347;29;4181;-72
2021/01/11 03:03:29;;;;;;;;;;;;;;;23.01;43.21;101530.44;2045048;28;3909;-70
2021/01/11 03:04:29;;;;;;;;;;;;;;;23.00;42.67;101523.88;2045654;28;3914;-70
2021/01/11 03:05:29;;;;;;;;;;;;;;;23.03;42.83;101526.03;2044204;29;3812;-70
2021/01/11 03:06:29;;;;;;;;;;;;;;;23.11;42.48;101527.16;2046362;28;4048;-69
2021/01/11 03:07:30;;;;;;;;;;;;;;;23.14;42.89;101526.44;2045629;29;4076;-70
2021/01/11 03:08:30;;;;;;;;;;;;;;;23.15;42.72;101530.13;2045197;28;3885;-69
2021/01/11 03:09:30;;;;;;;;;;;;;;;23.15;42.54;101524.41;2047101;28;3910;-70
2021/01/11 03:10:30;;;;;;;;;;;;;;;23.12;42.67;101529.63;2043946;28;3903;-70
2021/01/11 03:11:30;;;;;;;;;;;;;;;23.12;42.54;101531.66;2044130;28;4005;-70
2021/01/11 03:12:31;;;;;;;;;;;;;;;23.11;42.28;101527.16;2044901;28;3898;-69
2021/01/11 03:13:31;;;;;;;;;;;;;;;23.09;42.43;101530.34;2045486;28;4369;-70
2021/01/11 03:14:31;;;;;;;;;;;;;;;23.13;42.46;101530.50;2043408;28;3841;-70
2021/01/11 03:15:31;;;;;;;;;;;;;;;23.16;43.07;101531.78;2045616;29;3925;-70
2021/01/11 03:16:31;;;;;;;;;;;;;;;23.15;43.08;101525.25;2045939;28;4091;-70
2021/01/11 03:17:31;;;;;;;;;;;;;;;23.16;43.17;101528.94;2045261;28;3969;-70
2021/01/11 03:18:31;;;;;;;;;;;;;;;23.17;43.01;101531.44;2045479;28;4359;-71
2021/01/11 03:19:32;;;;;;;;;;;;;;;23.12;43.15;101526.78;2045092;29;4067;-70
2021/01/11 03:20:32;;;;;;;;;;;;;;;23.07;43.30;101538.44;2045400;29;4230;-69
2021/01/11 03:21:32;;;;;;;;;;;;;;;23.08;43.01;101522.97;2043888;28;4036;-69
2021/01/11 03:22:32;;;;;;;;;;;;;;;23.12;42.97;101526.78;2036456;29;4048;-70
2021/01/11 03:23:32;;;;;;;;;;;;;;;23.13;43.23;101530.50;2036092;29;4452;-69
2021/01/11 03:24:32;;;;;;;;;;;;;;;23.12;43.19;101523.09;2044601;28;4094;-70
2021/01/11 03:25:32;;;;;;;;;;;;;;;23.10;43.12;101523.47;2045681;28;3914;-69
2021/01/11 03:26:32;;;;;;;;;;;;;;;23.08;43.21;101522.97;2045310;28;3954;-69
2021/01/11 03:27:32;;;;;;;;;;;;;;;23.09;43.38;101521.78;2045506;28;3904;-71
2021/01/11 03:28:32;;;;;;;;;;;;;;;23.11;43.84;101521.44;2044402;28;4126;-71
2021/01/11 03:29:32;;;;;;;;;;;;;;;23.14;43.90;101519.91;2044368;29;3810;-70
2021/01/11 03:30:32;;;;;;;;;;;;;;;23.16;43.77;101518.38;2044913;28;4362;-71
2021/01/11 03:31:33;;;;;;;;;;;;;;;23.17;43.69;101519.19;2044676;28;4014;-69
2021/01/11 03:32:33;;;;;;;;;;;;;;;23.14;42.98;101517.06;2045341;29;5577;-70
2021/01/11 03:33:33;;;;;;;;;;;;;;;23.16;42.88;101526.06;2044181;28;4251;-70
2021/01/11 03:34:33;;;;;;;;;;;;;;;23.11;42.81;101513.69;2044022;28;4121;-69
2021/01/11 03:35:33;;;;;;;;;;;;;;;23.12;43.00;101511.69;2045408;28;4026;-70
2021/01/11 03:36:33;;;;;;;;;;;;;;;23.14;42.70;101515.03;2045272;29;3904;-70
2021/01/11 03:37:33;;;;;;;;;;;;;;;23.10;42.90;101517.75;2045431;29;4048;-70
2021/01/11 03:38:33;;;;;;;;;;;;;;;23.11;42.89;101521.44;2043536;28;3819;-70
2021/01/11 03:39:33;;;;;;;;;;;;;;;23.13;42.89;101513.38;2045211;28;4245;-70
2021/01/11 03:40:33;;;;;;;;;;;;;;;23.14;42.88;101520.72;2044715;29;4143;-70
2021/01/11 03:41:34;;;;;;;;;;;;;;;23.18;42.74;101510.25;2044391;28;3937;-70
2021/01/11 03:42:34;;;;;;;;;;;;;;;23.17;42.69;101513.50;2043669;28;3987;-70
2021/01/11 03:43:34;;;;;;;;;;;;;;;23.15;42.77;101516.69;2045430;28;4108;-71
2021/01/11 03:44:34;;;;;;;;;;;;;;;23.16;42.77;101511.81;2044470;29;4423;-71
2021/01/11 03:45:34;;;;;;;;;;;;;;;23.17;42.79;101513.50;2045003;28;3875;-71
2021/01/11 03:46:34;;;;;;;;;;;;;;;23.19;42.75;101509.09;2045778;28;4026;-71
2021/01/11 03:47:34;;;;;;;;;;;;;;;23.19;42.85;101511.13;2045720;29;4034;-71
2021/01/11 03:48:34;;;;;;;;;;;;;;;23.19;42.89;101516.84;2044817;28;3823;-71
2021/01/11 03:49:34;;;;;;;;;;;;;;;23.18;42.90;101506.59;2044320;28;3900;-71
2021/01/11 03:50:34;;;;;;;;;;;;;;;23.17;42.86;101502.06;2045146;29;3978;-71
2021/01/11 03:51:34;;;;;;;;;;;;;;;23.23;42.81;101507.19;2044164;28;3877;-71
2021/01/11 03:52:35;;;;;;;;;;;;;;;23.24;42.96;101502.31;2045269;29;4078;-71
2021/01/11 03:53:35;;;;;;;;;;;;;;;23.23;42.94;101509.22;2045070;29;3828;-70
2021/01/11 03:54:35;;;;;;;;;;;;;;;23.21;42.96;101506.72;2043512;28;3907;-71
2021/01/11 03:55:35;;;;;;;;;;;;;;;23.23;42.88;101506.38;2045112;29;4022;-70
2021/01/11 03:56:35;;;;;;;;;;;;;;;23.22;42.96;101516.13;2044744;28;3863;-70
2021/01/11 03:57:35;;;;;;;;;;;;;;;23.20;42.81;101510.75;2045998;28;4348;-71
2021/01/11 03:58:35;;;;;;;;;;;;;;;23.20;43.04;101507.06;2045216;29;4469;-71
2021/01/11 03:59:35;;;;;;;;;;;;;;;23.21;43.10;101511.59;2043631;28;3812;-71
2021/01/11 04:00:35;;;;;;;;;;;;;;;23.20;43.06;101504.22;2042735;28;3922;-71
2021/01/11 04:01:35;;;;;;;;;;;;;;;23.15;43.07;101510.97;2044640;28;4021;-71
2021/01/11 04:02:35;;;;;;;;;;;;;;;23.19;43.04;101514.81;2045495;28;4078;-71
2021/01/11 04:03:36;;;;;;;;;;;;;;;23.18;43.02;101510.25;2036932;29;4230;-71
2021/01/11 04:04:36;;;;;;;;;;;;;;;23.17;43.10;101508.59;2036254;29;4011;-71
2021/01/11 04:05:36;;;;;;;;;;;;;;;23.15;43.25;101510.97;2044338;28;4382;-71
2021/01/11 04:06:36;;;;;;;;;;;;;;;23.16;43.12;101511.81;2044615;28;3950;-71
2021/01/11 04:07:36;;;;;;;;;;;;;;;23.15;43.10;101498.72;2045326;29;4094;-71
2021/01/11 04:08:36;;;;;;;;;;;;;;;23.19;42.99;101511.97;2044883;29;3804;-71
2021/01/11 04:09:36;;;;;;;;;;;;;;;23.16;43.15;101503.22;2044665;29;3921;-71
2021/01/11 04:10:36;;;;;;;;;;;;;;;23.18;43.15;101500.88;2044705;28;3909;-71
2021/01/11 04:11:36;;;;;;;;;;;;;;;23.19;43.17;101502.56;2044489;28;4249;-71
2021/01/11 04:12:36;;;;;;;;;;;;;;;23.20;43.08;101502.19;2045288;29;3891;-69
2021/01/11 04:13:37;;;;;;;;;;;;;;;23.21;42.96;101503.03;2044898;28;4219;-69
2021/01/11 04:14:37;;;;;;;;;;;;;;;23.25;43.06;101506.84;2044827;28;3792;-68
2021/01/11 04:15:37;;;;;;;;;;;;;;;23.24;43.05;101502.31;2044461;28;3895;-69
2021/01/11 04:16:37;;;;;;;;;;;;;;;23.27;42.84;101501.63;2045172;29;4068;-69
2021/01/11 04:17:37;;;;;;;;;;;;;;;23.28;42.91;101504.13;2044159;28;3811;-68
2021/01/11 04:18:37;;;;;;;;;;;;;;;23.26;42.82;101494.25;2043455;28;3899;-69
2021/01/11 04:19:37;;;;;;;;;;;;;;;23.25;42.89;101499.13;2045023;29;4038;-69
2021/01/11 04:20:37;;;;;;;;;;;;;;;23.28;42.80;101497.59;2044186;28;4051;-69
2021/01/11 04:21:37;;;;;;;;;;;;;;;23.28;42.90;101498.41;2043279;28;4129;-69
2021/01/11 04:22:37;;;;;;;;;;;;;;;23.29;42.84;101493.53;2044309;28;3893;-69
2021/01/11 04:23:37;;;;;;;;;;;;;;;23.31;42.78;101492.00;2043499;28;3879;-69
2021/01/11 04:24:38;;;;;;;;;;;;;;;23.29;42.89;101497.22;2044837;29;3871;-69
2021/01/11 04:25:38;;;;;;;;;;;;;;;23.29;42.92;101496.38;2045046;28;4149;-69
2021/01/11 04:26:38;;;;;;;;;;;;;;;23.27;42.81;101493.91;2044008;28;3879;-69
2021/01/11 04:27:38;;;;;;;;;;;;;;;23.25;42.84;101490.56;2044582;28;4045;-69
2021/01/11 04:28:38;;;;;;;;;;;;;;;23.24;42.76;101488.91;2045081;29;4087;-69
2021/01/11 04:29:38;;;;;;;;;;;;;;;23.24;42.83;101488.03;2045242;29;3874;-69
2021/01/11 04:30:38;;;;;;;;;;;;;;;23.24;42.90;101485.19;2044651;28;4097;-70
2021/01/11 04:31:38;;;;;;;;;;;;;;;23.21;42.79;101485.88;2044103;28;3955;-69
2021/01/11 04:32:41;;;;;;;;;;;;;;;23.18;42.95;101489.44;2044385;29;3781;-69
2021/01/11 04:33:41;;;;;;;;;;;;;;;23.17;42.95;101482.09;2041717;28;4035;-69
2021/01/11 04:34:41;;;;;;;;;;;;;;;23.21;42.69;101480.19;2043138;28;3961;-68
2021/01/11 04:35:41;;;;;;;;;;;;;;;23.16;42.93;101484.13;2044466;29;3925;-69
2021/01/11 04:36:42;;;;;;;;;;;;;;;23.23;42.66;101486.38;2043721;28;4050;-69
2021/01/11 04:37:42;;;;;;;;;;;;;;;23.24;42.70;101476.63;2044287;29;4021;-69
2021/01/11 04:38:42;;;;;;;;;;;;;;;23.23;42.66;101475.78;2045373;29;3958;-68
2021/01/11 04:39:42;;;;;;;;;;;;;;;23.22;42.69;101479.00;2043964;28;4091;-69
2021/01/11 04:40:42;;;;;;;;;;;;;;;23.26;42.65;101485.66;2044834;29;4113;-68
2021/01/11 04:41:42;;;;;;;;;;;;;;;23.22;42.68;101476.16;2044179;28;3946;-69
2021/01/11 04:42:42;;;;;;;;;;;;;;;23.24;42.58;101473.75;2044388;29;4022;-69
2021/01/11 04:43:42;;;;;;;;;;;;;;;23.25;42.58;101479.13;2044282;28;3996;-69
2021/01/11 04:44:42;;;;;;;;;;;;;;;23.23;42.67;101480.66;2043307;28;3951;-70
2021/01/11 04:45:42;;;;;;;;;;;;;;;23.30;42.63;101472.38;2044125;28;4034;-68
2021/01/11 04:46:42;;;;;;;;;;;;;;;23.27;42.67;101475.94;2045013;28;4054;-69
2021/01/11 04:47:42;;;;;;;;;;;;;;;23.25;42.82;101476.28;2043354;28;4302;-69
2021/01/11 04:48:42;;;;;;;;;;;;;;;23.22;42.73;101479.84;2045217;29;4056;-69
2021/01/11 04:49:43;;;;;;;;;;;;;;;23.24;42.74;101486.03;2035635;29;4060;-70
2021/01/11 04:50:43;;;;;;;;;;;;;;;23.29;42.84;101479.25;2035082;29;3896;-69
2021/01/11 04:51:43;;;;;;;;;;;;;;;23.29;42.75;101480.06;2043841;28;4026;-69
2021/01/11 04:52:43;;;;;;;;;;;;;;;23.29;42.69;101482.94;2044168;28;4364;-69
2021/01/11 04:53:43;;;;;;;;;;;;;;;23.30;42.74;101480.94;2044542;29;3938;-69
2021/01/11 04:54:43;;;;;;;;;;;;;;;23.28;42.77;101481.28;2044553;28;4200;-69
2021/01/11 04:55:43;;;;;;;;;;;;;;;23.30;42.76;101475.22;2045561;29;4051;-72
2021/01/11 04:56:43;;;;;;;;;;;;;;;23.33;42.55;101471.66;2043905;29;4293;-72
2021/01/11 04:57:43;;;;;;;;;;;;;;;23.38;42.62;101473.44;2043329;28;3874;-72
2021/01/11 04:58:43;;;;;;;;;;;;;;;23.35;42.75;101472.16;2044918;29;3925;-70
2021/01/11 04:59:43;;;;;;;;;;;;;;;23.35;42.75;101480.72;2044688;28;3841;-70
2021/01/11 05:00:44;;;;;;;;;;;;;;;23.36;42.73;101475.84;2044317;28;4138;-70
2021/01/11 05:01:44;;;;;;;;;;;;;;;23.33;42.90;101477.38;2043830;28;3836;-72
2021/01/11 05:02:44;;;;;;;;;;;;;;;23.31;42.83;101476.88;2043982;28;3941;-72
2021/01/11 05:03:44;;;;;;;;;;;;;;;23.32;42.83;101472.84;2044751;29;4099;-71
2021/01/11 05:04:44;;;;;;;;;;;;;;;23.33;42.96;101468.81;2044540;28;4033;-70
2021/01/11 05:05:44;;;;;;;;;;;;;;;23.32;42.89;101476.53;2044402;29;4021;-70
2021/01/11 05:06:44;;;;;;;;;;;;;;;23.31;42.93;101465.47;2035828;29;3873;-70
2021/01/11 05:07:44;;;;;;;;;;;;;;;23.27;43.16;101478.78;2034395;29;4052;-70
2021/01/11 05:08:45;;;;;;;;;;;;;;;23.24;43.11;101473.75;2044784;29;4221;-70
2021/01/11 05:09:45;;;;;;;;;;;;;;;23.27;43.15;101475.94;2043889;29;4038;-67
2021/01/11 05:10:45;;;;;;;;;;;;;;;23.24;42.88;101468.06;2043744;28;4054;-68
2021/01/11 05:11:45;;;;;;;;;;;;;;;23.21;43.00;101468.75;2044347;28;4214;-69
2021/01/11 05:12:45;;;;;;;;;;;;;;;23.22;42.95;101465.56;2044390;29;4058;-69